createdAt,value
2023-03-31T00:00:47.129Z,11.70
2023-03-31T00:02:22.036Z,11.70
2023-03-31T00:04:02.246Z,11.70
2023-03-31T00:05:37.755Z,11.70
2023-03-31T00:07:11.873Z,11.70
2023-03-31T00:08:45.493Z,11.70
2023-03-31T00:10:19.405Z,11.70
2023-03-31T00:11:53.479Z,11.60
2023-03-31T00:13:27.087Z,11.60
2023-03-31T00:15:00.275Z,11.60
2023-03-31T00:16:33.513Z,11.70
2023-03-31T00:18:06.045Z,11.70
2023-03-31T00:19:40.226Z,11.70
2023-03-31T00:21:14.747Z,11.70
2023-03-31T00:22:48.050Z,11.70
2023-03-31T00:24:21.207Z,11.70
2023-03-31T00:25:53.475Z,11.70
2023-03-31T00:27:28.226Z,11.70
2023-03-31T00:29:02.993Z,11.60
2023-03-31T00:30:36.082Z,11.70
2023-03-31T00:32:09.666Z,11.60
2023-03-31T00:33:42.250Z,11.60
2023-03-31T00:35:15.305Z,11.50
2023-03-31T00:36:48.412Z,11.50
2023-03-31T00:38:21.976Z,11.60
2023-03-31T00:39:56.606Z,11.60
2023-03-31T00:41:30.290Z,11.60
2023-03-31T00:43:03.355Z,11.60
2023-03-31T00:45:01.045Z,11.60
2023-03-31T00:46:35.618Z,11.60
2023-03-31T00:48:17.265Z,11.50
2023-03-31T00:49:54.995Z,11.40
2023-03-31T00:51:32.456Z,11.30
2023-03-31T00:53:11.155Z,11.30
2023-03-31T00:54:47.439Z,11.30
2023-03-31T00:56:19.546Z,11.30
2023-03-31T00:57:53.576Z,11.30
2023-03-31T00:59:30.729Z,11.30
2023-03-31T01:01:05.485Z,11.30
2023-03-31T01:02:41.570Z,11.30
2023-03-31T01:04:16.775Z,11.20
2023-03-31T01:05:56.291Z,11.20
2023-03-31T01:07:37.685Z,11.20
2023-03-31T01:09:10.775Z,11.10
2023-03-31T01:10:48.991Z,11.10
2023-03-31T01:12:23.894Z,11.10
2023-03-31T01:13:58.550Z,11.10
2023-03-31T01:15:31.669Z,11.20
2023-03-31T01:17:09.853Z,11.20
2023-03-31T01:18:46.533Z,11.20
2023-03-31T01:20:30.927Z,11.10
2023-03-31T01:22:32.745Z,11.10
2023-03-31T01:24:47.538Z,11.10
2023-03-31T01:26:51.654Z,11.10
2023-03-31T01:28:33.844Z,11.10
2023-03-31T01:30:42.532Z,11.00
2023-03-31T01:32:47.527Z,11.00
2023-03-31T01:34:54.165Z,11.00
2023-03-31T01:37:02.062Z,11.00
2023-03-31T01:39:26.658Z,10.90
2023-03-31T01:41:19.595Z,10.90
2023-03-31T01:42:58.599Z,10.90
2023-03-31T01:44:41.868Z,10.70
2023-03-31T01:46:22.360Z,10.60
2023-03-31T01:47:58.956Z,10.60
2023-03-31T01:49:40.798Z,10.60
2023-03-31T01:51:17.435Z,10.60
2023-03-31T01:52:56.833Z,10.60
2023-03-31T01:54:39.414Z,10.50
2023-03-31T01:56:21.222Z,10.40
2023-03-31T01:57:58.131Z,10.40
2023-03-31T01:59:35.909Z,10.40
2023-03-31T02:01:19.753Z,10.40
2023-03-31T02:02:59.514Z,10.50
2023-03-31T02:04:38.449Z,10.50
2023-03-31T02:06:16.356Z,10.40
2023-03-31T02:07:53.243Z,10.30
2023-03-31T02:09:31.451Z,10.30
2023-03-31T02:11:04.947Z,10.30
2023-03-31T02:12:43.310Z,10.40
2023-03-31T02:14:22.342Z,10.40
2023-03-31T02:15:59.895Z,10.40
2023-03-31T02:17:34.000Z,10.30
2023-03-31T02:19:08.102Z,10.30
2023-03-31T02:20:46.200Z,10.20
2023-03-31T02:22:22.337Z,10.20
2023-03-31T02:23:55.725Z,10.20
2023-03-31T02:25:34.703Z,10.30
2023-03-31T02:27:13.682Z,10.20
2023-03-31T02:28:48.592Z,10.20
2023-03-31T02:30:22.035Z,10.30
2023-03-31T02:32:02.687Z,10.30
2023-03-31T02:33:36.237Z,10.30
2023-03-31T02:35:16.067Z,10.30
2023-03-31T02:36:51.178Z,10.40
2023-03-31T02:38:23.307Z,10.60
2023-03-31T02:39:59.817Z,10.60
2023-03-31T02:41:33.820Z,10.60
2023-03-31T02:43:06.913Z,10.70
2023-03-31T02:44:41.695Z,10.70
2023-03-31T02:46:14.834Z,10.70
2023-03-31T02:47:49.741Z,10.70
2023-03-31T02:49:23.302Z,10.70
2023-03-31T02:51:23.489Z,10.50
2023-03-31T02:53:04.350Z,10.40
2023-03-31T02:55:19.598Z,10.30
2023-03-31T02:57:13.340Z,10.20
2023-03-31T02:59:17.890Z,10.10
2023-03-31T03:01:07.278Z,9.90
2023-03-31T03:02:54.212Z,9.80
2023-03-31T03:04:56.336Z,9.80
2023-03-31T03:06:38.622Z,9.90
2023-03-31T03:08:55.376Z,9.90
2023-03-31T03:10:37.516Z,10.00
2023-03-31T03:12:17.312Z,10.00
2023-03-31T03:13:53.911Z,10.00
2023-03-31T03:15:33.722Z,10.00
2023-03-31T03:17:12.103Z,9.90
2023-03-31T03:18:45.201Z,9.90
2023-03-31T03:20:22.126Z,10.00
2023-03-31T03:21:54.615Z,10.10
2023-03-31T03:23:27.678Z,10.10
2023-03-31T03:25:00.789Z,10.10
2023-03-31T03:26:35.314Z,10.20
2023-03-31T03:28:08.599Z,10.20
2023-03-31T03:29:41.697Z,10.20
2023-03-31T03:31:15.652Z,10.10
2023-03-31T03:32:50.539Z,10.10
2023-03-31T03:34:25.623Z,10.10
2023-03-31T03:35:58.761Z,10.10
2023-03-31T03:37:32.644Z,10.10
2023-03-31T03:39:05.884Z,10.10
2023-03-31T03:40:38.952Z,10.10
2023-03-31T03:42:12.060Z,10.20
2023-03-31T03:43:45.153Z,10.20
2023-03-31T03:45:18.490Z,10.20
2023-03-31T03:46:51.592Z,10.20
2023-03-31T03:48:26.539Z,10.30
2023-03-31T03:49:59.649Z,10.30
2023-03-31T03:51:32.726Z,10.30
2023-03-31T03:53:05.945Z,10.40
2023-03-31T03:54:38.973Z,10.40
2023-03-31T03:56:12.066Z,10.50
2023-03-31T03:57:45.111Z,10.50
2023-03-31T03:59:18.160Z,10.50
2023-03-31T04:00:51.705Z,10.50
2023-03-31T04:02:27.584Z,10.60
2023-03-31T04:04:02.467Z,10.60
2023-03-31T04:05:35.503Z,10.60
2023-03-31T04:07:08.582Z,10.70
2023-03-31T04:08:41.682Z,10.70
2023-03-31T04:10:14.846Z,10.70
2023-03-31T04:11:47.896Z,10.90
2023-03-31T04:13:21.205Z,10.90
2023-03-31T04:14:54.272Z,10.90
2023-03-31T04:16:27.508Z,10.80
2023-03-31T04:18:00.606Z,10.80
2023-03-31T04:19:35.231Z,10.90
2023-03-31T04:21:07.292Z,10.90
2023-03-31T04:22:41.627Z,10.90
2023-03-31T04:25:54.693Z,11.00
2023-03-31T04:27:27.740Z,11.00
2023-03-31T04:29:01.057Z,11.10
2023-03-31T04:30:34.279Z,11.10
2023-03-31T04:32:07.810Z,11.10
2023-03-31T04:33:41.105Z,11.10
2023-03-31T04:35:17.869Z,11.00
2023-03-31T04:36:50.958Z,11.00
2023-03-31T04:38:27.118Z,11.00
2023-03-31T04:40:05.063Z,10.90
2023-03-31T04:41:38.977Z,10.80
2023-03-31T04:43:12.028Z,10.80
2023-03-31T04:44:45.201Z,10.70
2023-03-31T04:46:18.308Z,10.70
2023-03-31T04:47:51.383Z,10.70
2023-03-31T04:49:24.762Z,10.70
2023-03-31T04:50:59.238Z,10.80
2023-03-31T04:52:32.353Z,10.70
2023-03-31T04:54:05.636Z,10.70
2023-03-31T04:55:38.953Z,10.70
2023-03-31T04:57:12.118Z,10.70
2023-03-31T04:58:45.494Z,10.80
2023-03-31T05:00:19.748Z,10.80
2023-03-31T05:01:52.779Z,10.90
2023-03-31T05:03:26.341Z,10.90
2023-03-31T05:04:59.595Z,10.90
2023-03-31T05:06:34.535Z,11.10
2023-03-31T05:08:08.075Z,11.20
2023-03-31T05:09:41.087Z,11.20
2023-03-31T05:11:14.168Z,11.20
2023-03-31T05:12:47.210Z,11.30
2023-03-31T05:14:20.889Z,11.30
2023-03-31T05:15:53.992Z,11.30
2023-03-31T05:17:27.306Z,11.40
2023-03-31T05:19:00.392Z,11.30
2023-03-31T05:20:33.481Z,11.30
2023-03-31T05:22:07.900Z,11.30
2023-03-31T05:23:41.035Z,11.30
2023-03-31T05:25:18.626Z,11.40
2023-03-31T05:26:52.881Z,11.40
2023-03-31T05:28:26.162Z,11.40
2023-03-31T05:29:59.530Z,11.30
2023-03-31T05:31:32.644Z,11.20
2023-03-31T05:33:05.792Z,11.30
2023-03-31T05:34:38.891Z,11.30
2023-03-31T05:36:13.599Z,11.30
2023-03-31T05:37:48.106Z,11.30
2023-03-31T05:39:21.288Z,11.30
2023-03-31T05:40:54.427Z,11.30
2023-03-31T05:42:27.638Z,11.20
2023-03-31T05:44:02.053Z,11.20
2023-03-31T05:45:35.169Z,11.20
2023-03-31T05:47:08.333Z,11.20
2023-03-31T05:48:41.418Z,11.40
2023-03-31T05:50:14.980Z,11.80
2023-03-31T05:51:48.873Z,12.20
2023-03-31T05:53:23.482Z,12.50
2023-03-31T05:54:56.513Z,12.60
2023-03-31T05:56:29.691Z,13.20
2023-03-31T05:58:02.798Z,13.50
2023-03-31T05:59:36.258Z,13.50
2023-03-31T06:01:11.342Z,13.30
2023-03-31T06:02:44.880Z,12.90
2023-03-31T06:04:18.160Z,12.60
2023-03-31T06:05:54.048Z,12.30
2023-03-31T06:07:27.249Z,12.10
2023-03-31T06:09:01.914Z,11.80
2023-03-31T06:10:36.024Z,11.70
2023-03-31T06:12:09.447Z,11.60
2023-03-31T06:13:43.242Z,11.60
2023-03-31T06:15:16.504Z,11.50
2023-03-31T06:16:49.555Z,11.60
2023-03-31T06:18:22.708Z,11.60
2023-03-31T06:19:55.828Z,11.70
2023-03-31T06:21:29.001Z,11.70
2023-03-31T06:23:02.091Z,11.80
2023-03-31T06:24:36.530Z,11.80
2023-03-31T06:26:10.253Z,11.90
2023-03-31T06:27:43.749Z,11.90
2023-03-31T06:29:16.800Z,11.80
2023-03-31T06:30:49.863Z,11.80
2023-03-31T06:32:22.975Z,11.90
2023-03-31T06:33:56.441Z,12.00
2023-03-31T06:35:29.529Z,12.10
2023-03-31T06:37:02.604Z,12.10
2023-03-31T06:38:36.010Z,12.10
2023-03-31T06:40:12.253Z,12.20
2023-03-31T06:41:45.359Z,12.30
2023-03-31T06:43:25.192Z,12.40
2023-03-31T06:44:58.235Z,12.60
2023-03-31T06:46:31.325Z,12.70
2023-03-31T06:48:04.475Z,12.60
2023-03-31T06:49:37.646Z,12.60
2023-03-31T06:51:11.509Z,12.60
2023-03-31T06:52:44.700Z,12.60
2023-03-31T06:54:17.788Z,12.50
2023-03-31T06:55:52.359Z,12.60
2023-03-31T06:57:25.583Z,12.60
2023-03-31T06:58:58.726Z,12.80
2023-03-31T07:00:32.014Z,13.10
2023-03-31T07:02:05.371Z,14.50
2023-03-31T07:03:38.545Z,15.90
2023-03-31T07:05:11.775Z,17.20
2023-03-31T07:06:44.867Z,18.00
2023-03-31T07:08:19.719Z,18.30
2023-03-31T07:09:56.159Z,18.00
2023-03-31T07:11:30.753Z,17.70
2023-03-31T07:13:05.600Z,17.20
2023-03-31T07:14:38.941Z,17.00
2023-03-31T07:16:14.144Z,16.50
2023-03-31T07:17:50.933Z,16.10
2023-03-31T07:19:24.252Z,15.60
2023-03-31T07:20:57.272Z,15.10
2023-03-31T07:22:30.494Z,14.90
2023-03-31T07:24:03.608Z,14.70
2023-03-31T07:25:37.087Z,14.40
2023-03-31T07:27:11.517Z,14.20
2023-03-31T07:28:44.700Z,13.90
2023-03-31T07:30:19.842Z,13.80
2023-03-31T07:31:52.982Z,13.70
2023-03-31T07:33:26.296Z,13.70
2023-03-31T07:34:59.329Z,13.70
2023-03-31T07:36:33.017Z,13.90
2023-03-31T07:38:06.226Z,14.00
2023-03-31T07:39:39.325Z,14.30
2023-03-31T07:41:14.042Z,14.40
2023-03-31T07:42:49.439Z,14.50
2023-03-31T07:44:23.471Z,14.60
2023-03-31T07:45:56.568Z,14.80
2023-03-31T07:47:30.279Z,15.00
2023-03-31T07:49:03.757Z,15.30
2023-03-31T07:50:36.821Z,15.40
2023-03-31T07:52:13.712Z,15.70
2023-03-31T07:53:47.029Z,15.80
2023-03-31T07:55:21.062Z,16.00
2023-03-31T07:56:54.305Z,16.20
2023-03-31T07:58:29.145Z,16.10
2023-03-31T08:00:06.568Z,15.80
2023-03-31T08:01:45.351Z,15.60
2023-03-31T08:03:18.482Z,15.40
2023-03-31T08:04:51.719Z,15.40
2023-03-31T08:06:26.385Z,15.50
2023-03-31T08:07:59.509Z,15.40
2023-03-31T08:09:32.613Z,15.20
2023-03-31T08:11:06.004Z,15.00
2023-03-31T08:12:39.292Z,14.90
2023-03-31T08:14:13.737Z,14.80
2023-03-31T08:15:46.895Z,14.90
2023-03-31T08:17:20.004Z,14.80
2023-03-31T08:18:53.321Z,15.00
2023-03-31T08:20:26.366Z,15.00
2023-03-31T08:21:59.424Z,15.10
2023-03-31T08:23:32.543Z,15.20
2023-03-31T08:25:06.401Z,15.10
2023-03-31T08:26:39.503Z,15.20
2023-03-31T08:28:14.055Z,15.30
2023-03-31T08:29:48.491Z,15.10
2023-03-31T08:31:27.433Z,15.10
2023-03-31T08:33:00.783Z,15.10
2023-03-31T08:34:34.028Z,15.10
2023-03-31T08:36:10.860Z,14.90
2023-03-31T08:37:44.140Z,14.90
2023-03-31T08:39:17.220Z,14.80
2023-03-31T08:40:50.321Z,14.80
2023-03-31T08:42:35.225Z,14.80
2023-03-31T08:44:12.399Z,14.90
2023-03-31T08:45:48.744Z,14.90
2023-03-31T08:47:25.723Z,14.80
2023-03-31T08:49:01.214Z,14.70
2023-03-31T08:50:36.657Z,14.70
2023-03-31T08:52:14.733Z,14.60
2023-03-31T08:53:51.926Z,14.50
2023-03-31T08:55:32.366Z,14.40
2023-03-31T08:57:12.419Z,14.30
2023-03-31T08:58:47.758Z,14.40
2023-03-31T09:00:21.569Z,14.40
2023-03-31T09:02:02.915Z,14.40
2023-03-31T09:03:45.914Z,14.40
2023-03-31T09:05:49.116Z,14.40
2023-03-31T09:07:40.570Z,14.40
2023-03-31T09:09:26.316Z,14.40
2023-03-31T09:11:06.506Z,14.40
2023-03-31T09:12:51.096Z,14.30
2023-03-31T09:14:32.363Z,14.20
2023-03-31T09:16:16.310Z,14.00
2023-03-31T09:17:52.468Z,13.90
2023-03-31T09:19:36.631Z,13.90
2023-03-31T09:21:21.386Z,13.90
2023-03-31T09:23:02.030Z,14.00
2023-03-31T09:24:44.839Z,14.20
2023-03-31T09:26:25.067Z,14.30
2023-03-31T09:28:00.305Z,14.40
2023-03-31T09:29:47.572Z,14.40
2023-03-31T09:31:23.453Z,14.40
2023-03-31T09:33:12.194Z,14.30
2023-03-31T09:34:47.056Z,14.30
2023-03-31T09:36:22.741Z,14.40
2023-03-31T09:37:57.135Z,14.50
2023-03-31T09:39:30.264Z,14.50
2023-03-31T09:41:05.435Z,14.60
2023-03-31T09:42:39.756Z,14.70
2023-03-31T09:44:24.152Z,14.70
2023-03-31T09:46:09.180Z,14.70
2023-03-31T09:47:44.781Z,14.70
2023-03-31T09:49:22.436Z,14.70
2023-03-31T09:51:00.901Z,14.80
2023-03-31T09:52:35.957Z,14.90
2023-03-31T09:54:15.101Z,14.90
2023-03-31T09:55:52.439Z,14.90
2023-03-31T09:57:29.010Z,14.70
2023-03-31T09:59:05.040Z,14.80
2023-03-31T10:00:43.252Z,14.70
2023-03-31T10:02:37.558Z,14.50
2023-03-31T10:04:11.333Z,14.30
2023-03-31T10:05:53.228Z,14.00
2023-03-31T10:07:27.035Z,13.90
2023-03-31T10:09:03.327Z,13.70
2023-03-31T10:10:36.631Z,13.60
2023-03-31T10:12:20.192Z,13.60
2023-03-31T10:14:01.406Z,13.70
2023-03-31T10:15:42.090Z,13.70
2023-03-31T10:17:17.419Z,13.60
2023-03-31T10:18:50.928Z,13.60
2023-03-31T10:20:34.464Z,13.70
2023-03-31T10:22:27.521Z,13.70
2023-03-31T10:24:02.636Z,13.70
2023-03-31T10:25:36.475Z,13.70
2023-03-31T10:27:20.786Z,13.60
2023-03-31T10:28:55.340Z,13.60
2023-03-31T10:30:35.431Z,13.50
2023-03-31T10:32:16.098Z,13.70
2023-03-31T10:33:51.771Z,13.60
2023-03-31T10:35:30.683Z,13.60
2023-03-31T10:37:05.717Z,13.40
2023-03-31T10:38:45.084Z,13.40
2023-03-31T10:40:22.838Z,13.30
2023-03-31T10:41:56.017Z,13.10
2023-03-31T10:43:31.113Z,13.20
2023-03-31T10:45:36.529Z,13.20
2023-03-31T10:47:20.734Z,13.20
2023-03-31T10:48:53.855Z,13.20
2023-03-31T10:50:31.988Z,13.20
2023-03-31T10:52:14.906Z,13.10
2023-03-31T10:53:50.793Z,13.20
2023-03-31T10:55:29.961Z,13.30
2023-03-31T10:57:05.666Z,13.20
2023-03-31T10:59:05.446Z,13.00
2023-03-31T11:00:52.390Z,13.10
2023-03-31T11:03:03.891Z,13.20
2023-03-31T11:04:49.797Z,13.30
2023-03-31T11:06:32.217Z,13.40
2023-03-31T11:08:22.296Z,13.40
2023-03-31T11:10:09.671Z,13.50
2023-03-31T11:12:02.096Z,13.50
2023-03-31T11:13:42.299Z,13.40
2023-03-31T11:15:24.327Z,13.40
2023-03-31T11:17:04.685Z,13.40
2023-03-31T11:18:48.659Z,13.40
2023-03-31T11:20:30.917Z,13.20
2023-03-31T11:22:10.980Z,13.20
2023-03-31T11:23:48.371Z,13.30
2023-03-31T11:25:29.296Z,13.30
2023-03-31T11:27:13.720Z,13.20
2023-03-31T11:29:07.849Z,13.00
2023-03-31T11:30:47.928Z,12.90
2023-03-31T11:32:56.771Z,12.90
2023-03-31T11:34:50.793Z,12.80
2023-03-31T11:36:39.400Z,12.70
2023-03-31T11:38:33.541Z,12.50
2023-03-31T11:40:23.553Z,12.40
2023-03-31T11:42:01.565Z,12.40
2023-03-31T11:43:41.164Z,12.40
2023-03-31T11:45:19.541Z,12.40
2023-03-31T11:46:56.025Z,12.30
2023-03-31T11:48:38.379Z,12.20
2023-03-31T11:50:13.550Z,12.10
2023-03-31T11:51:53.016Z,11.90
2023-03-31T11:53:31.546Z,11.80
2023-03-31T11:55:09.053Z,11.80
2023-03-31T11:56:42.941Z,11.70
2023-03-31T11:58:21.625Z,11.60
2023-03-31T11:59:59.879Z,11.60
2023-03-31T12:01:43.509Z,11.60
2023-03-31T12:03:21.143Z,11.50
2023-03-31T12:04:57.435Z,11.50
2023-03-31T12:06:34.876Z,11.60
2023-03-31T12:08:13.793Z,11.60
2023-03-31T12:09:54.670Z,11.60
2023-03-31T12:11:32.919Z,11.50
2023-03-31T12:13:24.980Z,11.50
2023-03-31T12:15:06.342Z,11.50
2023-03-31T12:16:43.824Z,11.50
2023-03-31T12:18:21.802Z,11.50
2023-03-31T12:19:57.433Z,11.50
2023-03-31T12:21:32.829Z,11.50
2023-03-31T12:23:12.866Z,11.50
2023-03-31T12:24:46.934Z,11.50
2023-03-31T12:26:36.870Z,11.50
2023-03-31T12:28:11.692Z,11.50
2023-03-31T12:29:49.628Z,11.50
2023-03-31T12:31:25.651Z,11.60
2023-03-31T12:33:05.974Z,11.50
2023-03-31T12:34:47.009Z,11.50
2023-03-31T12:36:35.674Z,11.50
2023-03-31T12:38:21.677Z,11.40
2023-03-31T12:40:06.737Z,11.50
2023-03-31T12:41:46.843Z,11.40
2023-03-31T12:43:45.686Z,11.40
2023-03-31T12:45:28.638Z,11.40
2023-03-31T12:47:21.358Z,11.30
2023-03-31T12:49:04.242Z,11.30
2023-03-31T12:50:46.517Z,11.20
2023-03-31T12:52:26.561Z,11.20
2023-03-31T12:54:15.486Z,11.20
2023-03-31T12:55:51.976Z,11.20
2023-03-31T12:57:26.539Z,11.10
2023-03-31T12:59:19.847Z,11.10
2023-03-31T13:01:07.317Z,11.20
2023-03-31T13:02:41.578Z,11.20
2023-03-31T13:04:22.259Z,11.20
2023-03-31T13:05:55.471Z,11.30
2023-03-31T13:07:39.646Z,11.30
2023-03-31T13:09:42.002Z,11.30
2023-03-31T13:11:15.166Z,11.30
2023-03-31T13:13:03.978Z,11.40
2023-03-31T13:14:40.225Z,11.40
2023-03-31T13:16:21.452Z,11.40
2023-03-31T13:17:59.026Z,11.60
2023-03-31T13:19:34.334Z,11.60
2023-03-31T13:21:09.258Z,11.70
2023-03-31T13:22:48.264Z,11.80
2023-03-31T13:24:24.284Z,11.80
2023-03-31T13:25:58.594Z,11.80
2023-03-31T13:27:34.519Z,11.80
2023-03-31T13:29:22.749Z,11.80
2023-03-31T13:31:02.165Z,11.90
2023-03-31T13:32:37.152Z,12.00
2023-03-31T13:34:10.380Z,12.40
2023-03-31T13:35:47.825Z,12.80
2023-03-31T13:37:49.680Z,13.10
2023-03-31T13:39:43.334Z,13.40
2023-03-31T13:41:42.288Z,14.30
2023-03-31T13:43:29.404Z,15.30
2023-03-31T13:45:24.617Z,15.20
2023-03-31T13:47:15.399Z,15.40
2023-03-31T13:49:02.748Z,15.50
2023-03-31T13:50:57.549Z,15.10
2023-03-31T13:52:39.975Z,15.30
2023-03-31T13:54:41.320Z,15.10
2023-03-31T13:56:32.223Z,14.90
2023-03-31T13:58:41.430Z,14.90
2023-03-31T14:00:39.069Z,15.00
2023-03-31T14:02:34.446Z,15.40
2023-03-31T14:04:21.625Z,15.30
2023-03-31T14:05:57.817Z,15.10
2023-03-31T14:07:35.669Z,14.80
2023-03-31T14:09:12.948Z,14.60
2023-03-31T14:10:46.044Z,14.40
2023-03-31T14:12:30.862Z,14.10
2023-03-31T14:14:07.503Z,14.00
2023-03-31T14:15:44.137Z,13.90
2023-03-31T14:17:17.669Z,13.80
2023-03-31T14:18:57.719Z,13.60
2023-03-31T14:20:40.423Z,13.50
2023-03-31T14:22:23.853Z,13.60
2023-03-31T14:24:05.044Z,13.60
2023-03-31T14:25:47.053Z,13.60
2023-03-31T14:27:39.227Z,13.60
2023-03-31T14:29:20.643Z,13.80
2023-03-31T14:31:05.059Z,14.10
2023-03-31T14:32:47.459Z,14.40
2023-03-31T14:34:51.576Z,14.60
2023-03-31T14:36:34.031Z,14.60
2023-03-31T14:38:12.924Z,14.20
2023-03-31T14:39:48.426Z,14.20
2023-03-31T14:41:29.927Z,14.30
2023-03-31T14:43:04.219Z,14.20
2023-03-31T14:44:38.340Z,14.00
2023-03-31T14:46:11.718Z,13.70
2023-03-31T14:47:54.100Z,13.60
2023-03-31T14:49:29.266Z,13.60
2023-03-31T14:51:04.943Z,13.70
2023-03-31T14:52:39.369Z,13.60
2023-03-31T14:54:18.427Z,13.60
2023-03-31T14:55:58.703Z,13.90
2023-03-31T14:57:35.170Z,14.20
2023-03-31T14:59:09.488Z,14.70
2023-03-31T15:00:43.697Z,15.20
2023-03-31T15:02:21.292Z,15.00
2023-03-31T15:03:55.332Z,14.70
2023-03-31T15:05:31.670Z,14.60
2023-03-31T15:07:06.117Z,14.70
2023-03-31T15:08:40.863Z,14.40
2023-03-31T15:10:19.957Z,14.10
2023-03-31T15:11:58.080Z,14.50
2023-03-31T15:13:35.023Z,14.40
2023-03-31T15:15:09.228Z,14.10
2023-03-31T15:16:44.912Z,14.20
2023-03-31T15:18:18.693Z,14.10
2023-03-31T15:19:56.208Z,13.70
2023-03-31T15:21:32.409Z,13.30
2023-03-31T15:23:24.862Z,13.20
2023-03-31T15:24:59.577Z,13.30
2023-03-31T15:26:42.021Z,13.30
2023-03-31T15:28:18.326Z,13.30
2023-03-31T15:29:53.041Z,13.30
2023-03-31T15:31:27.964Z,13.20
2023-03-31T15:33:11.753Z,13.10
2023-03-31T15:34:52.454Z,13.00
2023-03-31T15:36:27.864Z,13.00
2023-03-31T15:38:03.647Z,13.10
2023-03-31T15:39:38.768Z,13.10
2023-03-31T15:41:18.310Z,13.20
2023-03-31T15:43:06.054Z,13.20
2023-03-31T15:44:45.170Z,13.30
2023-03-31T15:46:21.555Z,13.30
2023-03-31T15:47:55.562Z,13.30
2023-03-31T15:49:30.397Z,13.40
2023-03-31T15:51:07.815Z,13.50
2023-03-31T15:52:48.833Z,13.60
2023-03-31T15:54:34.732Z,13.80
2023-03-31T15:56:08.321Z,14.00
2023-03-31T15:57:45.638Z,14.20
2023-03-31T15:59:27.542Z,14.40
2023-03-31T16:01:07.676Z,14.70
2023-03-31T16:02:44.109Z,15.00
2023-03-31T16:04:18.889Z,15.10
2023-03-31T16:05:56.839Z,15.00
2023-03-31T16:07:33.886Z,15.00
2023-03-31T16:09:09.101Z,14.70
2023-03-31T16:10:42.778Z,14.70
2023-03-31T16:12:20.619Z,14.90
2023-03-31T16:13:57.962Z,14.80
2023-03-31T16:15:36.046Z,14.70
2023-03-31T16:17:14.626Z,14.90
2023-03-31T16:18:50.087Z,14.70
2023-03-31T16:20:25.875Z,14.30
2023-03-31T16:22:02.174Z,14.20
2023-03-31T16:23:38.695Z,14.20
2023-03-31T16:25:15.401Z,14.10
2023-03-31T16:26:49.064Z,14.10
2023-03-31T16:28:25.400Z,14.10
2023-03-31T16:30:12.518Z,14.00
2023-03-31T16:31:45.765Z,13.90
2023-03-31T16:33:20.819Z,13.80
2023-03-31T16:34:56.089Z,13.70
2023-03-31T16:36:29.281Z,13.70
2023-03-31T16:38:02.848Z,13.60
2023-03-31T16:39:36.023Z,13.70
2023-03-31T16:41:09.126Z,13.60
2023-03-31T16:42:42.204Z,13.60
2023-03-31T16:44:15.247Z,13.50
2023-03-31T16:45:51.323Z,13.50
2023-03-31T16:47:34.580Z,13.40
2023-03-31T16:49:09.063Z,13.30
2023-03-31T16:50:42.167Z,13.30
2023-03-31T16:52:15.258Z,13.10
2023-03-31T16:53:48.954Z,12.80
2023-03-31T16:55:22.207Z,12.50
2023-03-31T16:56:55.452Z,12.20
2023-03-31T16:58:29.437Z,12.00
2023-03-31T17:00:02.877Z,11.70
2023-03-31T17:01:37.601Z,11.60
2023-03-31T17:03:11.811Z,11.50
2023-03-31T17:04:45.055Z,11.30
2023-03-31T17:06:18.124Z,11.20
2023-03-31T17:07:51.188Z,11.10
2023-03-31T17:09:24.265Z,10.90
2023-03-31T17:11:01.124Z,10.90
2023-03-31T17:12:34.202Z,10.80
2023-03-31T17:14:07.267Z,10.70
2023-03-31T17:15:40.350Z,10.70
2023-03-31T17:17:16.667Z,10.70
2023-03-31T17:18:51.149Z,10.70
2023-03-31T17:20:24.897Z,10.60
2023-03-31T17:22:01.802Z,10.60
2023-03-31T17:23:35.327Z,10.60
2023-03-31T17:25:09.190Z,10.50
2023-03-31T17:26:42.281Z,10.50
2023-03-31T17:28:15.372Z,10.40
2023-03-31T17:29:48.404Z,10.40
2023-03-31T17:31:22.847Z,10.40
2023-03-31T17:32:58.368Z,10.30
2023-03-31T17:34:31.532Z,10.20
2023-03-31T17:36:05.016Z,10.00
2023-03-31T17:37:38.563Z,9.90
2023-03-31T17:39:12.046Z,9.80
2023-03-31T17:40:45.500Z,9.70
2023-03-31T17:42:20.364Z,9.50
2023-03-31T17:43:53.428Z,9.30
2023-03-31T17:45:26.605Z,9.20
2023-03-31T17:46:59.695Z,9.10
2023-03-31T17:48:35.042Z,9.00
2023-03-31T17:50:09.777Z,8.90
2023-03-31T17:51:43.652Z,8.80
2023-03-31T17:53:16.750Z,8.70
2023-03-31T17:54:50.864Z,8.70
2023-03-31T17:56:24.359Z,8.60
2023-03-31T17:57:57.809Z,8.50
2023-03-31T17:59:31.155Z,8.40
2023-03-31T18:01:05.829Z,8.40
2023-03-31T18:02:39.364Z,8.40
2023-03-31T18:04:14.687Z,8.40
2023-03-31T18:05:47.771Z,8.40
2023-03-31T18:07:23.127Z,8.40
2023-03-31T18:08:57.762Z,8.30
2023-03-31T18:10:30.855Z,8.30
2023-03-31T18:12:04.037Z,8.30
2023-03-31T18:13:37.570Z,8.30
2023-03-31T18:15:11.666Z,8.30
2023-03-31T18:16:44.734Z,8.40
2023-03-31T18:18:18.586Z,8.30
2023-03-31T18:19:52.998Z,8.40
2023-03-31T18:21:26.063Z,8.30
2023-03-31T18:23:00.153Z,8.30
2023-03-31T18:24:34.418Z,8.40
2023-03-31T18:26:08.068Z,8.40
2023-03-31T18:27:41.785Z,8.40
2023-03-31T18:29:14.932Z,8.40
2023-03-31T18:30:48.254Z,8.40
2023-03-31T18:32:21.352Z,8.40
2023-03-31T18:33:55.264Z,8.50
2023-03-31T18:35:29.741Z,8.50
2023-03-31T18:37:03.617Z,8.60
2023-03-31T18:38:37.027Z,8.60
2023-03-31T18:40:11.758Z,8.50
2023-03-31T18:41:47.723Z,8.60
2023-03-31T18:43:22.187Z,8.60
2023-03-31T18:44:55.372Z,8.50
2023-03-31T18:46:28.535Z,8.50
2023-03-31T18:48:02.439Z,8.40
2023-03-31T18:49:35.798Z,8.40
2023-03-31T18:51:10.567Z,8.40
2023-03-31T18:52:43.660Z,8.40
2023-03-31T18:54:16.985Z,8.40
2023-03-31T18:55:50.425Z,8.40
2023-03-31T18:57:23.841Z,8.40
2023-03-31T18:58:57.829Z,8.40
2023-03-31T19:00:30.970Z,8.40
2023-03-31T19:02:04.284Z,9.00
2023-03-31T19:03:37.831Z,9.10
2023-03-31T19:05:11.265Z,9.20
2023-03-31T19:06:45.730Z,9.30
2023-03-31T19:08:18.827Z,9.30
2023-03-31T19:09:51.910Z,9.50
2023-03-31T19:11:25.072Z,9.70
2023-03-31T19:12:58.453Z,10.10
2023-03-31T19:14:31.559Z,10.30
2023-03-31T19:16:04.709Z,10.60
2023-03-31T19:17:37.898Z,10.60
2023-03-31T19:19:11.470Z,10.80
2023-03-31T19:20:47.310Z,10.90
2023-03-31T19:22:22.019Z,10.90
2023-03-31T19:23:55.092Z,11.10
2023-03-31T19:25:28.497Z,11.10
2023-03-31T19:27:02.610Z,11.10
2023-03-31T19:28:35.654Z,11.10
2023-03-31T19:30:14.705Z,11.10
2023-03-31T19:31:48.504Z,11.10
2023-03-31T19:33:21.769Z,11.10
2023-03-31T19:34:55.860Z,11.10
2023-03-31T19:36:28.940Z,11.20
2023-03-31T19:38:03.799Z,11.20
2023-03-31T19:39:37.478Z,11.20
2023-03-31T19:41:10.961Z,11.20
2023-03-31T19:42:44.526Z,11.20
2023-03-31T19:44:17.683Z,11.20
2023-03-31T19:45:53.213Z,11.10
2023-03-31T19:47:26.622Z,11.10
2023-03-31T19:48:59.682Z,11.10
2023-03-31T19:50:32.729Z,11.00
2023-03-31T19:52:06.180Z,10.90
2023-03-31T19:53:40.982Z,10.90
2023-03-31T19:55:14.068Z,10.90
2023-03-31T19:56:47.605Z,10.80
2023-03-31T19:58:20.713Z,10.90
2023-03-31T19:59:53.823Z,10.80
2023-03-31T20:01:28.199Z,10.90
2023-03-31T20:03:01.588Z,10.90
2023-03-31T20:04:35.603Z,10.90
2023-03-31T20:06:11.306Z,10.80
2023-03-31T20:07:44.391Z,10.90
2023-03-31T20:09:18.821Z,10.90
2023-03-31T20:10:51.988Z,10.90
2023-03-31T20:12:25.271Z,11.00
2023-03-31T20:13:58.535Z,10.90
2023-03-31T20:15:32.907Z,10.90
2023-03-31T20:17:07.457Z,11.00
2023-03-31T20:18:40.881Z,11.00
2023-03-31T20:20:14.026Z,11.00
2023-03-31T20:21:47.944Z,11.00
2023-03-31T20:23:21.013Z,11.00
2023-03-31T20:24:55.462Z,11.00
2023-03-31T20:26:30.566Z,11.00
2023-03-31T20:28:04.108Z,11.00
2023-03-31T20:29:37.189Z,11.00
2023-03-31T20:31:11.737Z,11.00
2023-03-31T20:32:45.060Z,11.00
2023-03-31T20:34:22.302Z,11.00
2023-03-31T20:36:02.701Z,11.00
2023-03-31T20:37:35.754Z,11.00
2023-03-31T20:39:09.590Z,10.90
2023-03-31T20:40:49.076Z,10.90
2023-03-31T20:42:22.213Z,10.80
2023-03-31T20:43:56.655Z,10.80
2023-03-31T20:45:29.913Z,10.70
2023-03-31T20:47:03.883Z,10.70
2023-03-31T20:48:37.952Z,10.70
2023-03-31T20:50:11.226Z,10.70
2023-03-31T20:51:45.671Z,10.70
2023-03-31T20:53:18.774Z,10.60
2023-03-31T20:54:52.016Z,10.60
2023-03-31T20:56:28.797Z,10.70
2023-03-31T20:58:02.014Z,10.60
2023-03-31T20:59:35.070Z,10.50